Time;durP1;ratioP1;P1;durP2;ratioP2;P2;SDS_P1;SDS_P2;PMS_P1;PMS_P2;Temp;Humidity;BMP_temperature;BMP_pressure;BME280_temperature;BME280_humidity;BME280_pressure;Samples;Min_cycle;Max_cycle;Signal;HPM_P1;HPM_P2
2024/04/22 00:00:19;;;;;;;8.40;6.38;;;4.10;99.90;;;;;;5419306;26;20019;-56
2024/04/22 00:02:46;;;;;;;6.85;5.85;;;4.20;99.90;;;;;;5420477;26;19999;-53
2024/04/22 00:05:14;;;;;;;7.53;6.00;;;4.20;99.90;;;;;;5416040;26;20014;-56
2024/04/22 00:07:41;;;;;;;8.55;6.57;;;4.20;99.90;;;;;;5418781;26;20697;-58
2024/04/22 00:10:08;;;;;;;6.95;6.10;;;4.30;99.90;;;;;;5425406;26;20047;-55
2024/04/22 00:12:35;;;;;;;7.47;5.72;;;4.40;99.90;;;;;;5416458;26;20574;-58
2024/04/22 00:15:01;;;;;;;7.47;6.07;;;4.40;99.90;;;;;;5414233;26;19995;-55
2024/04/22 00:17:28;;;;;;;7.10;6.38;;;4.30;99.90;;;;;;5421416;26;20011;-54
2024/04/22 00:19:57;;;;;;;6.55;5.65;;;4.20;99.90;;;;;;5425706;26;20084;-54
2024/04/22 00:22:24;;;;;;;6.65;5.90;;;4.00;99.90;;;;;;5415145;26;20000;-58
2024/04/22 00:24:51;;;;;;;7.20;6.50;;;3.90;99.90;;;;;;5422437;26;20004;-58
2024/04/22 00:27:18;;;;;;;7.45;6.05;;;3.80;99.90;;;;;;5425348;26;19999;-57
2024/04/22 00:29:45;;;;;;;6.90;5.80;;;4.00;99.90;;;;;;5417718;26;20406;-58
2024/04/22 00:32:12;;;;;;;6.25;5.65;;;4.00;99.90;;;;;;5418397;26;20008;-55
2024/04/22 00:34:39;;;;;;;5.93;5.25;;;4.00;99.90;;;;;;5420628;26;19998;-57
2024/04/22 00:37:06;;;;;;;5.80;5.20;;;4.10;99.90;;;;;;5419224;26;19995;-58
2024/04/22 00:39:32;;;;;;;6.30;5.15;;;4.20;99.90;;;;;;5423617;26;20018;-58
2024/04/22 00:41:59;;;;;;;5.57;5.00;;;4.30;99.90;;;;;;5420060;26;19999;-59
2024/04/22 00:44:26;;;;;;;4.55;4.13;;;4.30;99.90;;;;;;5415123;26;20038;-57
2024/04/22 00:46:53;;;;;;;5.57;4.88;;;4.20;99.90;;;;;;5418827;26;20003;-57
2024/04/22 00:49:21;;;;;;;4.93;4.40;;;4.20;99.90;;;;;;5416137;26;20034;-57
2024/04/22 00:51:48;;;;;;;5.80;4.78;;;4.30;99.90;;;;;;5415376;26;20039;-56
2024/04/22 00:54:16;;;;;;;5.53;4.65;;;4.20;99.90;;;;;;5419100;26;20712;-54
2024/04/22 00:56:45;;;;;;;6.18;5.07;;;4.00;99.90;;;;;;5419481;26;20010;-57
2024/04/22 00:59:12;;;;;;;5.43;4.55;;;3.90;99.90;;;;;;5417667;26;20004;-55
2024/04/22 01:01:39;;;;;;;5.40;4.82;;;3.90;99.90;;;;;;5422310;26;20010;-58
2024/04/22 01:04:06;;;;;;;4.18;3.80;;;3.90;99.90;;;;;;5423914;26;20040;-58
2024/04/22 01:06:33;;;;;;;6.28;4.25;;;3.90;99.90;;;;;;5422209;26;20009;-57
2024/04/22 01:09:00;;;;;;;5.55;5.05;;;4.00;99.90;;;;;;5427634;26;20000;-55
2024/04/22 01:11:27;;;;;;;7.55;5.40;;;3.90;99.90;;;;;;5420810;26;20007;-53
2024/04/22 01:13:54;;;;;;;5.93;5.32;;;3.90;99.90;;;;;;5424623;26;20006;-58
2024/04/22 01:16:21;;;;;;;6.50;5.80;;;3.80;99.90;;;;;;5429306;26;20024;-56
2024/04/22 01:18:48;;;;;;;6.25;5.28;;;3.70;99.90;;;;;;5384690;26;20023;-56
2024/04/22 01:21:14;;;;;;;5.93;5.32;;;3.80;99.90;;;;;;5423201;26;19998;-56
2024/04/22 01:23:44;;;;;;;6.30;5.18;;;3.60;99.90;;;;;;5427167;26;19999;-57
2024/04/22 01:26:12;;;;;;;6.30;5.45;;;3.50;99.90;;;;;;5431397;26;20018;-57
2024/04/22 01:28:38;;;;;;;6.00;5.28;;;3.50;99.90;;;;;;5417182;26;20006;-56
2024/04/22 01:31:05;;;;;;;6.78;5.25;;;3.40;99.90;;;;;;5421260;26;20072;-57
2024/04/22 01:33:32;;;;;;;6.97;5.43;;;3.40;99.90;;;;;;5428254;26;20000;-57
2024/04/22 01:35:59;;;;;;;5.88;5.25;;;3.40;99.90;;;;;;5421447;26;20014;-59
2024/04/22 01:38:26;;;;;;;5.70;5.07;;;3.40;99.90;;;;;;5416239;26;20010;-58
2024/04/22 01:40:53;;;;;;;5.97;5.32;;;3.50;99.90;;;;;;5425182;26;20022;-57
2024/04/22 01:43:20;;;;;;;6.50;5.50;;;3.50;99.90;;;;;;5413763;26;20541;-57
2024/04/22 01:45:48;;;;;;;6.95;6.25;;;3.60;99.90;;;;;;5358716;26;20003;-57
2024/04/22 01:48:15;;;;;;;8.13;6.38;;;3.60;99.90;;;;;;5416816;26;19999;-58
2024/04/22 01:50:42;;;;;;;8.27;6.68;;;3.70;99.90;;;;;;5419451;26;19999;-58
2024/04/22 01:53:09;;;;;;;9.07;7.00;;;3.70;99.90;;;;;;5415256;26;20464;-58
2024/04/22 01:55:36;;;;;;;8.68;6.95;;;3.70;99.90;;;;;;5425039;26;20007;-59
2024/04/22 01:58:03;;;;;;;8.35;7.07;;;3.60;99.90;;;;;;5415081;26;20000;-59
2024/04/22 02:00:30;;;;;;;8.30;7.00;;;3.60;99.90;;;;;;5415857;26;20023;-57
2024/04/22 02:02:56;;;;;;;10.02;6.85;;;3.50;99.90;;;;;;5422140;26;20022;-56
2024/04/22 02:05:23;;;;;;;6.80;5.85;;;3.60;99.90;;;;;;5426096;26;19995;-57
2024/04/22 02:07:50;;;;;;;8.15;7.32;;;3.70;99.90;;;;;;5412543;26;20000;-56
2024/04/22 02:10:17;;;;;;;8.85;6.93;;;3.80;99.90;;;;;;5426352;26;20007;-57
2024/04/22 02:12:50;;;;;;;8.23;7.20;;;3.70;99.90;;;;;;5409917;26;20402;-55
2024/04/22 02:15:17;;;;;;;9.50;7.32;;;3.80;99.90;;;;;;5421283;26;19999;-58
2024/04/22 02:17:44;;;;;;;9.15;7.57;;;3.70;99.90;;;;;;5403801;26;20546;-56
2024/04/22 02:20:11;;;;;;;9.75;7.40;;;3.70;99.90;;;;;;5415773;26;20033;-59
2024/04/22 02:22:38;;;;;;;8.85;6.80;;;3.70;99.90;;;;;;5412629;26;20015;-55
2024/04/22 02:25:05;;;;;;;8.23;7.00;;;3.60;99.90;;;;;;5426364;26;20004;-59
2024/04/22 02:27:32;;;;;;;9.32;7.63;;;3.50;99.90;;;;;;5420913;26;20019;-59
2024/04/22 02:29:59;;;;;;;10.02;8.25;;;3.40;99.90;;;;;;5423868;26;20000;-58
2024/04/22 02:32:28;;;;;;;9.35;7.32;;;3.50;99.90;;;;;;5420107;26;20010;-57
2024/04/22 02:34:55;;;;;;;9.68;8.25;;;3.60;99.90;;;;;;5410465;26;20007;-57
2024/04/22 02:37:22;;;;;;;10.80;8.05;;;3.60;99.90;;;;;;5418561;26;20007;-59
2024/04/22 02:39:49;;;;;;;10.43;7.75;;;3.80;99.90;;;;;;5420070;26;20015;-59
2024/04/22 02:42:15;;;;;;;9.93;8.05;;;3.80;99.90;;;;;;5422867;26;20007;-58
2024/04/22 02:44:42;;;;;;;10.20;7.97;;;3.80;99.90;;;;;;5421302;26;20511;-59
2024/04/22 02:47:09;;;;;;;9.68;7.85;;;3.70;99.90;;;;;;5416960;26;20029;-59
2024/04/22 02:49:36;;;;;;;10.07;7.85;;;3.70;99.90;;;;;;5416763;26;20087;-58
2024/04/22 02:52:03;;;;;;;9.65;8.05;;;3.60;99.90;;;;;;5417947;26;20022;-58
2024/04/22 02:54:31;;;;;;;11.43;8.57;;;3.60;99.90;;;;;;5419586;26;20328;-59
2024/04/22 02:56:58;;;;;;;10.73;8.55;;;3.60;99.90;;;;;;5419857;26;20012;-58
2024/04/22 02:59:25;;;;;;;10.77;8.70;;;3.50;99.90;;;;;;5422772;26;20008;-58
2024/04/22 03:01:52;;;;;;;9.82;8.05;;;3.50;99.90;;;;;;5419742;26;20083;-59
2024/04/22 03:04:18;;;;;;;10.80;8.63;;;3.40;99.90;;;;;;5413496;26;20015;-59
2024/04/22 03:06:47;;;;;;;10.15;8.32;;;3.40;99.90;;;;;;5401669;26;20076;-58
2024/04/22 03:09:14;;;;;;;9.80;7.57;;;3.40;99.90;;;;;;5432894;26;20019;-58
2024/04/22 03:11:41;;;;;;;11.10;8.52;;;3.40;99.90;;;;;;5420515;26;20027;-59
2024/04/22 03:14:08;;;;;;;10.40;8.63;;;3.30;99.90;;;;;;5424158;26;20003;-58
2024/04/22 03:16:34;;;;;;;11.82;8.82;;;3.40;99.90;;;;;;5423492;26;20448;-59
2024/04/22 03:19:01;;;;;;;13.00;8.93;;;3.40;99.90;;;;;;5418021;26;20015;-57
2024/04/22 03:21:28;;;;;;;12.25;9.73;;;3.50;99.90;;;;;;5430596;26;20516;-59
2024/04/22 03:23:55;;;;;;;10.93;9.07;;;3.50;99.90;;;;;;5421777;26;20089;-59
2024/04/22 03:26:22;;;;;;;13.50;10.15;;;3.60;99.90;;;;;;5428804;26;19995;-59
2024/04/22 03:28:48;;;;;;;12.50;10.00;;;3.60;99.90;;;;;;5421650;26;20076;-59
2024/04/22 03:31:15;;;;;;;14.40;10.48;;;3.60;99.90;;;;;;5431666;26;20535;-59
2024/04/22 03:33:42;;;;;;;11.55;9.57;;;3.60;99.90;;;;;;5413174;26;20003;-58
2024/04/22 03:36:09;;;;;;;12.55;9.63;;;3.60;99.90;;;;;;5426291;26;20018;-59
2024/04/22 03:38:36;;;;;;;10.90;8.70;;;3.70;99.90;;;;;;5426443;26;19999;-59
2024/04/22 03:41:03;;;;;;;10.30;8.50;;;3.70;99.90;;;;;;5420658;26;20000;-58
2024/04/22 03:43:30;;;;;;;9.93;7.90;;;3.70;99.90;;;;;;5420910;26;20018;-59
2024/04/22 03:51:27;;;;;;;11.75;8.55;;;3.70;99.90;;;;;;5416279;26;20287;-59
2024/04/22 03:53:54;;;;;;;8.57;7.22;;;3.70;99.90;;;;;;5389350;26;20018;-59
2024/04/22 03:56:21;;;;;;;12.55;8.27;;;3.60;99.90;;;;;;5408357;26;20015;-58
2024/04/22 03:58:48;;;;;;;10.30;7.90;;;3.60;99.90;;;;;;5414980;26;20085;-59
2024/04/22 04:01:16;;;;;;;11.18;7.88;;;3.60;99.90;;;;;;5400870;26;20008;-58
2024/04/22 04:03:43;;;;;;;9.45;7.05;;;3.50;99.90;;;;;;5423291;26;19999;-58
2024/04/22 04:06:10;;;;;;;11.52;7.47;;;3.50;99.90;;;;;;5414395;26;20580;-59
2024/04/22 04:08:36;;;;;;;8.90;7.43;;;3.50;99.90;;;;;;5421820;26;20079;-60
2024/04/22 04:11:12;;;;;;;12.05;8.20;;;3.60;99.90;;;;;;5408793;26;20018;-58
2024/04/22 04:13:43;;;;;;;10.85;8.25;;;3.60;99.90;;;;;;5420641;26;20029;-57
2024/04/22 04:16:10;;;;;;;13.13;8.68;;;3.60;99.90;;;;;;5411662;26;20018;-59
2024/04/22 04:18:38;;;;;;;10.77;8.45;;;3.60;99.90;;;;;;5418144;26;20002;-59
2024/04/22 04:21:05;;;;;;;11.48;9.15;;;3.60;99.90;;;;;;5425840;26;20351;-56
2024/04/22 04:23:32;;;;;;;12.13;9.70;;;3.70;99.90;;;;;;5419374;26;20007;-56
2024/04/22 04:26:01;;;;;;;11.40;9.10;;;3.70;99.90;;;;;;5409380;26;19999;-57
2024/04/22 04:28:28;;;;;;;10.70;8.15;;;3.70;99.90;;;;;;5409372;26;20010;-57
2024/04/22 04:30:56;;;;;;;10.02;8.15;;;3.60;99.90;;;;;;5410608;26;20076;-56
2024/04/22 04:33:24;;;;;;;10.98;8.30;;;3.60;99.90;;;;;;5419435;26;20018;-57
2024/04/22 04:36:00;;;;;;;9.55;8.05;;;3.60;99.90;;;;;;5423546;26;20011;-54
2024/04/22 04:38:28;;;;;;;10.68;7.78;;;3.70;99.90;;;;;;5403704;26;20026;-59
2024/04/22 04:40:55;;;;;;;12.75;8.45;;;3.60;99.90;;;;;;5426103;26;20007;-59
2024/04/22 04:43:25;;;;;;;11.02;8.82;;;3.60;99.90;;;;;;5331038;26;22706;-59
2024/04/22 04:45:53;;;;;;;10.68;7.55;;;3.60;99.90;;;;;;5330884;26;20373;-58
2024/04/22 04:48:21;;;;;;;10.50;8.32;;;3.60;99.90;;;;;;5303091;26;20005;-58
2024/04/22 04:50:49;;;;;;;10.63;8.27;;;3.60;99.90;;;;;;5323135;26;20025;-59
2024/04/22 04:53:17;;;;;;;12.20;8.02;;;3.60;99.90;;;;;;5299493;26;20478;-60
2024/04/22 04:55:48;;;;;;;12.20;9.45;;;3.60;99.90;;;;;;5298141;26;20006;-60
2024/04/22 04:58:15;;;;;;;10.65;8.65;;;3.70;99.90;;;;;;5301434;26;20032;-57
2024/04/22 05:00:42;;;;;;;11.43;8.55;;;3.60;99.90;;;;;;5307796;26;20008;-58
2024/04/22 05:03:09;;;;;;;10.65;8.60;;;3.60;99.90;;;;;;5307813;26;20012;-60
2024/04/22 05:05:36;;;;;;;11.15;7.97;;;3.70;99.90;;;;;;5307311;26;20010;-59
2024/04/22 05:08:03;;;;;;;10.30;7.38;;;3.70;99.90;;;;;;5307142;26;19998;-57
2024/04/22 05:10:31;;;;;;;8.50;7.15;;;3.70;99.90;;;;;;5307085;26;20017;-59
2024/04/22 05:12:58;;;;;;;9.43;6.65;;;3.70;99.90;;;;;;5309081;26;20001;-57
2024/04/22 05:15:25;;;;;;;7.80;6.40;;;3.70;99.90;;;;;;5302013;26;20009;-59
2024/04/22 05:17:52;;;;;;;8.32;5.63;;;3.80;99.90;;;;;;5306420;26;20020;-59
2024/04/22 05:20:19;;;;;;;6.43;5.28;;;3.80;99.90;;;;;;5302749;26;20001;-59
2024/04/22 05:22:45;;;;;;;6.13;5.05;;;3.80;99.90;;;;;;5310050;26;20013;-58
2024/04/22 05:25:12;;;;;;;6.30;5.00;;;3.70;99.90;;;;;;5307014;26;20398;-60
2024/04/22 05:27:39;;;;;;;5.65;4.75;;;3.80;99.90;;;;;;5310385;26;20466;-55
2024/04/22 05:30:06;;;;;;;5.95;4.90;;;3.90;99.90;;;;;;5305050;26;20653;-60
2024/04/22 05:32:33;;;;;;;6.45;4.93;;;3.90;99.90;;;;;;5313903;26;20001;-58
2024/04/22 05:37:46;;;;;;;6.75;5.38;;;3.80;99.90;;;;;;5304162;26;20024;-60
2024/04/22 05:40:12;;;;;;;8.10;4.53;;;3.90;99.90;;;;;;5316849;26;20638;-59
2024/04/22 05:42:39;;;;;;;6.07;5.03;;;3.90;99.90;;;;;;5319913;26;20462;-60
2024/04/22 05:45:06;;;;;;;6.30;5.20;;;3.80;99.90;;;;;;5314888;26;20001;-59
2024/04/22 05:47:33;;;;;;;6.70;5.88;;;3.80;99.90;;;;;;5308766;26;19997;-59
2024/04/22 05:50:02;;;;;;;7.78;5.88;;;3.90;99.90;;;;;;5316502;26;20002;-59
2024/04/22 05:52:28;;;;;;;7.20;6.18;;;4.00;99.90;;;;;;5310945;26;20006;-59
2024/04/22 05:54:56;;;;;;;7.38;6.25;;;4.10;99.90;;;;;;5300208;26;20017;-60
2024/04/22 05:57:22;;;;;;;8.90;6.72;;;4.00;99.90;;;;;;5302896;26;20037;-60
2024/04/22 05:59:49;;;;;;;9.65;7.35;;;4.00;99.90;;;;;;5305882;26;20014;-59
2024/04/22 06:02:16;;;;;;;10.23;7.32;;;4.20;99.90;;;;;;5309097;26;20119;-59
2024/04/22 06:04:43;;;;;;;11.15;7.72;;;4.20;99.90;;;;;;5295862;26;20002;-58
2024/04/22 06:07:10;;;;;;;10.68;7.57;;;4.20;99.90;;;;;;5290260;26;20473;-61
2024/04/22 06:09:37;;;;;;;9.35;7.53;;;4.20;99.90;;;;;;5301977;26;20038;-60
2024/04/22 06:12:04;;;;;;;11.35;7.47;;;4.20;99.90;;;;;;5304572;26;20020;-60
2024/04/22 06:14:44;;;;;;;10.10;7.80;;;4.20;99.90;;;;;;5309954;26;20016;-61
2024/04/22 06:17:11;;;;;;;9.57;7.25;;;4.20;99.90;;;;;;5307428;26;20096;-60
2024/04/22 06:19:38;;;;;;;9.13;7.35;;;4.30;99.90;;;;;;5300826;26;20088;-59
2024/04/22 06:22:05;;;;;;;12.07;7.75;;;4.40;99.90;;;;;;5301891;26;20021;-60
2024/04/22 06:24:32;;;;;;;11.52;7.45;;;4.40;99.90;;;;;;5301585;26;20346;-60
2024/04/22 06:26:59;;;;;;;9.32;6.80;;;4.30;99.90;;;;;;5301102;26;20005;-60
2024/04/22 06:29:26;;;;;;;8.48;6.10;;;4.40;99.90;;;;;;5306161;26;20018;-60
2024/04/22 06:31:53;;;;;;;11.88;6.45;;;4.40;99.90;;;;;;5305221;26;20001;-61
2024/04/22 06:34:20;;;;;;;8.82;6.10;;;4.30;99.90;;;;;;5305559;26;20476;-59
2024/04/22 06:36:46;;;;;;;9.88;6.75;;;4.30;99.90;;;;;;5305142;26;20013;-61
2024/04/22 06:39:13;;;;;;;9.55;7.65;;;4.40;99.90;;;;;;5308445;26;20002;-60
2024/04/22 06:41:40;;;;;;;11.23;7.20;;;4.60;99.90;;;;;;5305631;26;20128;-61
2024/04/22 06:44:07;;;;;;;9.45;6.78;;;4.70;99.90;;;;;;5317901;26;20006;-62
2024/04/22 06:46:34;;;;;;;10.40;7.22;;;4.50;99.90;;;;;;5317363;26;20025;-59
2024/04/22 06:49:01;;;;;;;6.85;5.80;;;4.50;99.90;;;;;;5314129;26;20013;-58
2024/04/22 06:51:28;;;;;;;8.27;6.13;;;4.70;99.90;;;;;;5298516;26;20013;-59
2024/04/22 06:53:54;;;;;;;8.63;6.78;;;4.80;99.90;;;;;;5309970;26;20029;-60
2024/04/22 06:56:21;;;;;;;8.55;7.00;;;5.00;99.90;;;;;;5315098;26;19997;-61
2024/04/22 06:58:48;;;;;;;9.02;6.03;;;5.20;99.90;;;;;;5312671;26;20001;-60
2024/04/22 07:01:15;;;;;;;11.15;6.30;;;5.00;99.90;;;;;;5303209;26;20342;-59
2024/04/22 07:03:57;;;;;;;9.73;6.50;;;4.90;99.90;;;;;;5306692;26;19998;-61
2024/04/22 07:06:25;;;;;;;7.50;5.88;;;4.80;99.90;;;;;;5306715;26;20273;-60
2024/04/22 07:08:52;;;;;;;8.45;6.63;;;4.90;99.90;;;;;;5317578;26;20504;-58
2024/04/22 07:11:18;;;;;;;6.72;5.63;;;5.20;99.90;;;;;;5305518;26;20016;-59
2024/04/22 07:13:46;;;;;;;8.60;6.15;;;5.00;99.90;;;;;;5309672;26;20017;-61
2024/04/22 07:16:13;;;;;;;14.35;6.00;;;5.00;99.90;;;;;;5313224;26;20002;-61
2024/04/22 07:18:41;;;;;;;7.38;5.80;;;5.00;99.90;;;;;;5309620;26;20006;-61
2024/04/22 07:21:07;;;;;;;9.20;6.65;;;5.10;99.90;;;;;;5316568;26;20754;-61
2024/04/22 07:23:34;;;;;;;9.20;6.03;;;5.10;99.90;;;;;;5319818;26;20021;-61
2024/04/22 07:26:04;;;;;;;8.55;5.82;;;5.20;99.90;;;;;;5310523;26;20001;-61
2024/04/22 07:28:31;;;;;;;8.52;5.38;;;5.10;99.90;;;;;;5309195;26;20005;-60
2024/04/22 07:30:59;;;;;;;8.48;6.22;;;5.30;99.90;;;;;;5305141;26;20083;-57
2024/04/22 07:33:26;;;;;;;10.23;6.35;;;5.50;99.90;;;;;;5305965;26;20006;-59
2024/04/22 07:36:11;;;;;;;7.70;5.75;;;5.80;99.90;;;;;;5307487;26;20031;-58
2024/04/22 07:38:40;;;;;;;;;;;6.00;99.90;;;;;;5307320;26;20013;-61
2024/04/22 07:41:07;;;;;;;8.30;6.00;;;6.20;99.90;;;;;;5309962;26;19934;-59
2024/04/22 07:43:34;;;;;;;6.65;4.88;;;6.10;99.90;;;;;;5296903;26;20005;-60
2024/04/22 07:46:01;;;;;;;7.53;5.78;;;5.90;99.90;;;;;;5308881;26;20080;-61
2024/04/22 07:48:28;;;;;;;9.10;5.97;;;6.20;99.90;;;;;;5302759;26;20078;-61
2024/04/22 07:50:55;;;;;;;9.55;6.95;;;6.40;99.90;;;;;;5301727;26;20080;-60
2024/04/22 07:53:22;;;;;;;6.72;5.55;;;6.50;99.90;;;;;;5324691;26;20017;-59
2024/04/22 07:55:49;;;;;;;7.70;6.53;;;6.40;99.90;;;;;;5317273;26;20004;-60
2024/04/22 07:58:16;;;;;;;9.80;6.10;;;6.10;99.90;;;;;;5313103;26;20009;-60
2024/04/22 08:00:44;;;;;;;6.65;5.10;;;6.00;99.90;;;;;;5309525;26;20001;-61
2024/04/22 08:03:11;;;;;;;7.40;5.47;;;6.10;99.90;;;;;;5310750;26;20013;-61
2024/04/22 08:05:38;;;;;;;8.02;5.63;;;6.20;99.90;;;;;;5300576;26;20079;-59
2024/04/22 08:08:07;;;;;;;6.13;4.82;;;6.00;99.90;;;;;;5288305;26;20002;-60
2024/04/22 08:10:34;;;;;;;6.47;4.63;;;5.90;99.90;;;;;;5305759;26;20598;-61
2024/04/22 08:13:00;;;;;;;6.90;4.90;;;5.80;99.90;;;;;;5304876;26;20719;-61
2024/04/22 08:15:27;;;;;;;6.97;5.28;;;5.70;99.90;;;;;;5314357;26;20002;-62
2024/04/22 08:17:54;;;;;;;8.18;4.32;;;5.70;99.90;;;;;;5302102;26;20005;-60
2024/04/22 08:20:21;;;;;;;5.57;4.00;;;5.70;99.90;;;;;;5299044;26;20008;-59
2024/04/22 08:22:48;;;;;;;4.85;4.22;;;5.50;99.90;;;;;;5300480;26;20001;-58
2024/04/22 08:25:15;;;;;;;5.38;4.30;;;5.40;99.90;;;;;;5305134;26;20012;-61
2024/04/22 08:27:42;;;;;;;7.90;4.20;;;5.40;99.90;;;;;;5307557;26;20010;-60
2024/04/22 08:30:09;;;;;;;8.00;5.60;;;5.30;99.90;;;;;;5306381;26;21583;-61
2024/04/22 08:32:36;;;;;;;7.03;4.65;;;5.40;99.90;;;;;;5302798;26;20020;-60
2024/04/22 08:35:04;;;;;;;5.10;4.07;;;5.50;99.90;;;;;;5301984;26;20014;-60
2024/04/22 08:37:31;;;;;;;5.25;3.72;;;5.40;99.90;;;;;;5314803;26;20553;-57
2024/04/22 08:39:57;;;;;;;6.03;4.18;;;5.30;99.90;;;;;;5306201;26;22727;-55
2024/04/22 08:42:24;;;;;;;5.57;4.70;;;5.20;99.90;;;;;;5311322;26;20026;-59
2024/04/22 08:44:52;;;;;;;6.43;5.68;;;5.40;99.90;;;;;;5304403;26;20009;-61
2024/04/22 08:47:20;;;;;;;9.77;4.57;;;5.40;99.90;;;;;;5309163;26;20002;-61
2024/04/22 08:49:47;;;;;;;5.60;4.10;;;5.50;99.90;;;;;;5305300;26;20021;-61
2024/04/22 08:52:16;;;;;;;5.28;4.03;;;5.40;99.90;;;;;;5306927;26;20005;-60
2024/04/22 08:54:45;;;;;;;6.80;4.78;;;5.50;99.90;;;;;;5309191;26;20467;-60
2024/04/22 08:57:12;;;;;;;5.67;4.07;;;5.70;99.90;;;;;;5310104;26;20508;-61
2024/04/22 08:59:39;;;;;;;7.30;3.80;;;5.60;99.90;;;;;;5308706;26;20470;-61
2024/04/22 09:02:10;;;;;;;5.03;3.85;;;5.50;99.90;;;;;;5300680;26;20005;-60
2024/04/22 09:04:37;;;;;;;8.30;4.72;;;5.60;99.90;;;;;;5312987;26;20051;-61
2024/04/22 09:07:08;;;;;;;5.55;3.85;;;5.70;99.90;;;;;;5322045;26;20001;-61
2024/04/22 09:09:35;;;;;;;4.97;3.58;;;6.00;99.90;;;;;;5331269;26;20006;-60
2024/04/22 09:12:22;;;;;;;5.90;4.43;;;5.90;99.90;;;;;;5304969;26;20013;-61
2024/04/22 09:15:00;;;;;;;5.68;3.85;;;5.90;99.90;;;;;;5302271;26;20084;-60
2024/04/22 09:17:27;;;;;;;4.68;3.70;;;5.90;99.90;;;;;;5324723;26;20394;-60
2024/04/22 09:19:54;;;;;;;5.45;3.47;;;6.10;99.90;;;;;;5320688;26;20714;-61
2024/04/22 09:22:21;;;;;;;4.97;3.53;;;6.20;99.90;;;;;;5312352;26;20482;-61
2024/04/22 09:24:48;;;;;;;4.78;3.67;;;6.00;99.90;;;;;;5321696;26;20021;-62
2024/04/22 09:27:16;;;;;;;4.85;3.72;;;6.20;99.90;;;;;;5316164;26;20002;-61
2024/04/22 09:29:43;;;;;;;4.93;3.40;;;6.40;99.90;;;;;;5316121;26;20002;-60
2024/04/22 09:32:15;;;;;;;6.05;4.20;;;6.50;99.90;;;;;;5325709;26;20044;-63
2024/04/22 09:34:43;;;;;;;3.97;3.03;;;6.50;99.90;;;;;;5322581;26;20001;-60
2024/04/22 09:37:10;;;;;;;6.63;3.60;;;6.60;99.90;;;;;;5308476;26;20000;-60
2024/04/22 09:39:37;;;;;;;6.30;4.40;;;6.80;99.90;;;;;;5299075;26;20009;-60
2024/04/22 09:42:05;;;;;;;4.05;3.20;;;6.70;99.90;;;;;;5301861;26;20017;-60
2024/04/22 09:44:34;;;;;;;7.05;4.00;;;6.70;99.90;;;;;;5295822;26;20016;-61
2024/04/22 09:47:02;;;;;;;5.28;3.80;;;7.00;99.90;;;;;;5296937;26;20013;-62
2024/04/22 09:49:30;;;;;;;8.63;3.20;;;7.10;99.90;;;;;;5296198;26;20601;-61
2024/04/22 09:51:59;;;;;;;6.43;3.50;;;7.30;99.90;;;;;;5300673;26;20013;-62
2024/04/22 09:54:26;;;;;;;4.65;3.42;;;7.60;99.90;;;;;;5298687;26;20009;-63
2024/04/22 09:56:54;;;;;;;4.88;4.18;;;7.60;99.90;;;;;;5303750;26;20010;-62
2024/04/22 09:59:21;;;;;;;6.95;3.80;;;7.50;99.90;;;;;;5292742;26;20001;-59
2024/04/22 10:01:48;;;;;;;5.78;3.38;;;7.80;99.90;;;;;;5308389;26;20006;-61
2024/04/22 10:04:16;;;;;;;3.53;3.00;;;7.60;99.90;;;;;;5341997;26;20373;-60
2024/04/22 10:06:43;;;;;;;4.75;3.47;;;7.80;99.90;;;;;;5299547;26;20062;-61
2024/04/22 10:09:16;;;;;;;4.35;3.28;;;7.40;99.90;;;;;;5301785;26;20005;-61
2024/04/22 10:11:44;;;;;;;5.72;3.50;;;7.00;99.90;;;;;;5298517;26;20010;-61
2024/04/22 10:14:14;;;;;;;5.72;3.55;;;7.20;99.90;;;;;;5305958;26;20005;-61
2024/04/22 10:16:56;;;;;;;4.57;2.92;;;7.20;99.90;;;;;;5301684;26;20087;-63
2024/04/22 10:19:23;;;;;;;5.03;3.45;;;7.10;99.90;;;;;;5295656;26;20002;-61
2024/04/22 10:21:51;;;;;;;5.35;3.60;;;7.00;99.90;;;;;;5318191;26;19998;-60
2024/04/22 10:24:34;;;;;;;4.85;3.67;;;7.30;99.90;;;;;;5307446;26;20460;-61
2024/04/22 10:27:06;;;;;;;5.13;3.67;;;7.10;99.90;;;;;;5304670;26;20032;-60
2024/04/22 10:29:40;;;;;;;5.13;3.63;;;7.50;99.90;;;;;;5308402;26;20002;-58
2024/04/22 10:32:08;;;;;;;6.63;3.35;;;7.40;99.90;;;;;;5303510;26;20017;-58
2024/04/22 10:34:40;;;;;;;3.55;3.03;;;7.60;99.90;;;;;;5296834;26;20013;-61
2024/04/22 10:37:07;;;;;;;4.63;3.10;;;7.60;99.90;;;;;;5298013;26;20009;-59
2024/04/22 10:39:33;;;;;;;5.22;3.25;;;7.60;99.90;;;;;;5293785;26;20002;-61
2024/04/22 10:42:00;;;;;;;5.03;3.13;;;7.80;99.90;;;;;;5301546;26;20328;-59
2024/04/22 10:44:28;;;;;;;3.55;2.28;;;8.20;99.90;;;;;;5295869;26;20006;-59
2024/04/22 10:46:54;;;;;;;6.78;3.30;;;7.70;99.90;;;;;;5303962;26;20020;-60
2024/04/22 10:49:29;;;;;;;4.20;3.08;;;7.60;99.90;;;;;;5316724;26;20465;-63
2024/04/22 10:51:56;;;;;;;3.30;2.90;;;7.80;99.90;;;;;;5312979;26;20724;-61
2024/04/22 10:54:23;;;;;;;5.75;3.60;;;8.20;99.90;;;;;;5302197;26;20006;-62
2024/04/22 10:56:50;;;;;;;8.02;3.97;;;8.30;99.90;;;;;;5304080;26;20006;-62
2024/04/22 10:59:18;;;;;;;5.82;4.18;;;8.10;99.90;;;;;;5305825;26;20091;-62
2024/04/22 11:01:46;;;;;;;5.90;3.38;;;7.90;99.90;;;;;;5308640;26;20006;-62
2024/04/22 11:04:14;;;;;;;6.28;3.78;;;8.00;99.90;;;;;;5309335;26;20339;-62
2024/04/22 11:06:41;;;;;;;5.82;3.20;;;8.10;99.90;;;;;;5313924;26;20040;-59
2024/04/22 11:09:09;;;;;;;5.20;3.60;;;7.80;99.90;;;;;;5313478;26;20071;-60
2024/04/22 11:11:36;;;;;;;5.03;3.67;;;7.70;99.90;;;;;;5307696;26;20004;-60
2024/04/22 11:14:04;;;;;;;4.68;3.83;;;7.70;99.90;;;;;;5352130;26;20020;-60
2024/04/22 11:16:31;;;;;;;5.40;3.60;;;7.60;99.90;;;;;;5312715;26;20020;-58
2024/04/22 11:19:03;;;;;;;4.70;3.20;;;7.80;99.90;;;;;;5306642;26;20012;-59
2024/04/22 11:21:34;;;;;;;6.68;4.32;;;7.60;99.90;;;;;;5304974;26;20001;-59
2024/04/22 11:24:02;;;;;;;5.13;3.42;;;7.90;99.90;;;;;;5305260;26;20324;-59
2024/04/22 11:26:32;;;;;;;4.78;3.00;;;8.00;99.90;;;;;;5321075;26;20339;-60
2024/04/22 11:29:02;;;;;;;3.97;3.00;;;7.40;99.90;;;;;;5299279;26;20013;-60
2024/04/22 11:31:33;;;;;;;5.13;3.53;;;7.30;99.90;;;;;;5321256;26;20017;-61
2024/04/22 11:34:00;;;;;;;7.30;4.15;;;7.30;99.90;;;;;;5310189;26;20001;-58
2024/04/22 11:36:33;;;;;;;9.63;3.40;;;7.10;99.90;;;;;;5305265;26;20021;-58
2024/04/22 11:39:21;;;;;;;5.13;3.58;;;7.40;99.90;;;;;;5303674;26;20072;-57
2024/04/22 11:41:48;;;;;;;10.18;4.97;;;7.50;99.90;;;;;;5312406;26;20009;-59
2024/04/22 11:44:15;;;;;;;4.63;3.22;;;7.80;99.90;;;;;;5297927;26;20018;-59
2024/04/22 11:46:41;;;;;;;5.43;3.45;;;7.80;99.90;;;;;;5298382;26;20002;-59
2024/04/22 11:49:08;;;;;;;6.88;3.88;;;7.80;99.90;;;;;;5306280;26;20009;-59
2024/04/22 11:51:36;;;;;;;4.05;3.13;;;8.20;99.90;;;;;;5310599;26;20025;-58
2024/04/22 11:54:04;;;;;;;5.95;3.13;;;8.40;99.90;;;;;;5297219;26;20462;-58
2024/04/22 11:56:40;;;;;;;3.92;2.90;;;8.10;99.90;;;;;;5306142;26;20016;-61
2024/04/22 11:59:07;;;;;;;6.28;3.67;;;8.00;99.90;;;;;;5301950;26;20003;-60
2024/04/22 12:01:35;;;;;;;7.95;4.32;;;8.00;99.90;;;;;;5316214;26;20467;-59
2024/04/22 12:04:01;;;;;;;5.80;3.33;;;8.30;99.90;;;;;;5306205;26;20018;-60
2024/04/22 12:06:29;;;;;;;4.88;3.88;;;8.30;99.90;;;;;;5307137;26;20057;-60
2024/04/22 12:08:56;;;;;;;3.92;3.47;;;8.10;99.90;;;;;;5307172;26;20007;-59
2024/04/22 12:11:25;;;;;;;5.72;3.88;;;7.90;99.90;;;;;;5299689;26;20037;-59
2024/04/22 12:13:52;;;;;;;5.00;3.95;;;7.90;99.90;;;;;;5296685;26;20339;-60
2024/04/22 12:16:19;;;;;;;3.50;3.15;;;8.00;99.90;;;;;;5299592;26;20002;-58
2024/04/22 12:18:46;;;;;;;5.15;3.10;;;8.00;99.90;;;;;;5303940;26;20006;-58
2024/04/22 12:21:13;;;;;;;5.45;3.88;;;7.70;99.90;;;;;;5305864;26;20000;-57
2024/04/22 12:23:41;;;;;;;4.95;4.05;;;7.80;99.90;;;;;;5303378;26;20006;-58
2024/04/22 12:26:07;;;;;;;7.57;3.85;;;8.10;99.90;;;;;;5303194;26;20518;-60
2024/04/22 12:28:34;;;;;;;4.60;3.80;;;8.10;99.90;;;;;;5302016;26;20014;-58
2024/04/22 12:31:01;;;;;;;4.55;3.95;;;8.00;99.90;;;;;;5302879;26;20005;-56
2024/04/22 12:33:28;;;;;;;4.13;3.53;;;8.00;99.90;;;;;;5307670;26;20005;-59
2024/04/22 12:35:55;;;;;;;7.03;3.63;;;8.00;99.90;;;;;;5305367;26;20005;-58
2024/04/22 12:38:22;;;;;;;5.63;4.32;;;7.90;99.90;;;;;;5316427;26;20042;-56
2024/04/22 12:40:49;;;;;;;8.40;4.50;;;8.00;99.90;;;;;;5305385;26;20079;-58
2024/04/22 12:43:16;;;;;;;7.15;4.03;;;8.20;99.90;;;;;;5314021;26;20016;-56
2024/04/22 12:45:43;;;;;;;6.40;4.47;;;8.30;99.90;;;;;;5310599;26;20017;-58
2024/04/22 12:50:58;;;;;;;6.80;4.32;;;8.40;99.90;;;;;;5301978;26;20029;-60
2024/04/22 12:53:26;;;;;;;4.75;4.20;;;8.40;99.90;;;;;;5311987;26;20013;-59
2024/04/22 12:55:53;;;;;;;7.45;4.57;;;8.40;99.90;;;;;;5305476;26;20016;-60
2024/04/22 12:58:20;;;;;;;7.70;4.50;;;8.30;99.90;;;;;;5298216;26;20084;-60
2024/04/22 13:00:48;;;;;;;6.80;4.28;;;8.50;99.90;;;;;;5292306;26;20531;-57
2024/04/22 13:03:14;;;;;;;4.65;3.88;;;8.40;99.90;;;;;;5300258;26;20009;-61
2024/04/22 13:05:42;;;;;;;4.88;3.90;;;8.50;99.90;;;;;;5325145;26;20429;-61
2024/04/22 13:08:08;;;;;;;7.30;4.72;;;8.50;99.90;;;;;;5308807;26;20016;-60